sensor_id;sensor_type;location;lat;lon;timestamp;P1;durP1;ratioP1;P2;durP2;ratioP2
24485;SDS011;13449;49.374;8.584;2023-05-16T00:01:48;20.45;;;11.45;;
24485;SDS011;13449;49.374;8.584;2023-05-16T00:04:15;25.77;;;12.40;;
24485;SDS011;13449;49.374;8.584;2023-05-16T00:06:42;30.58;;;15.05;;
24485;SDS011;13449;49.374;8.584;2023-05-16T00:09:09;32.63;;;15.02;;
24485;SDS011;13449;49.374;8.584;2023-05-16T00:11:37;28.80;;;15.90;;
24485;SDS011;13449;49.374;8.584;2023-05-16T00:14:04;40.30;;;18.90;;
24485;SDS011;13449;49.374;8.584;2023-05-16T00:16:30;36.10;;;17.15;;
24485;SDS011;13449;49.374;8.584;2023-05-16T00:19:00;43.10;;;18.63;;
24485;SDS011;13449;49.374;8.584;2023-05-16T00:21:32;42.22;;;19.70;;
24485;SDS011;13449;49.374;8.584;2023-05-16T00:23:58;39.80;;;19.60;;
24485;SDS011;13449;49.374;8.584;2023-05-16T00:26:25;40.40;;;19.60;;
24485;SDS011;13449;49.374;8.584;2023-05-16T00:28:51;46.58;;;21.40;;
24485;SDS011;13449;49.374;8.584;2023-05-16T00:31:20;44.70;;;21.58;;
24485;SDS011;13449;49.374;8.584;2023-05-16T00:33:47;42.33;;;20.20;;
24485;SDS011;13449;49.374;8.584;2023-05-16T00:36:13;42.83;;;19.67;;
24485;SDS011;13449;49.374;8.584;2023-05-16T00:38:40;47.67;;;21.52;;
24485;SDS011;13449;49.374;8.584;2023-05-16T00:41:06;47.80;;;22.20;;
24485;SDS011;13449;49.374;8.584;2023-05-16T00:43:33;40.35;;;19.63;;
24485;SDS011;13449;49.374;8.584;2023-05-16T00:45:59;48.85;;;22.38;;
24485;SDS011;13449;49.374;8.584;2023-05-16T00:48:26;49.33;;;22.48;;
24485;SDS011;13449;49.374;8.584;2023-05-16T00:50:52;47.65;;;22.33;;
24485;SDS011;13449;49.374;8.584;2023-05-16T00:53:21;42.28;;;20.63;;
24485;SDS011;13449;49.374;8.584;2023-05-16T00:55:49;48.63;;;22.35;;
24485;SDS011;13449;49.374;8.584;2023-05-16T00:58:16;45.38;;;21.58;;
24485;SDS011;13449;49.374;8.584;2023-05-16T01:00:45;42.83;;;20.55;;
24485;SDS011;13449;49.374;8.584;2023-05-16T01:03:14;47.58;;;22.65;;
24485;SDS011;13449;49.374;8.584;2023-05-16T01:05:41;50.58;;;22.63;;
24485;SDS011;13449;49.374;8.584;2023-05-16T01:08:07;50.80;;;24.40;;
24485;SDS011;13449;49.374;8.584;2023-05-16T01:11:11;59.60;;;23.92;;
24485;SDS011;13449;49.374;8.584;2023-05-16T01:13:40;46.08;;;21.50;;
24485;SDS011;13449;49.374;8.584;2023-05-16T01:16:15;51.85;;;22.55;;
24485;SDS011;13449;49.374;8.584;2023-05-16T01:18:58;41.30;;;20.85;;
24485;SDS011;13449;49.374;8.584;2023-05-16T01:21:52;46.03;;;21.08;;
24485;SDS011;13449;49.374;8.584;2023-05-16T01:27:25;54.58;;;23.05;;
24485;SDS011;13449;49.374;8.584;2023-05-16T01:29:58;52.13;;;23.08;;
24485;SDS011;13449;49.374;8.584;2023-05-16T01:32:24;50.40;;;22.70;;
24485;SDS011;13449;49.374;8.584;2023-05-16T01:34:51;47.30;;;21.50;;
24485;SDS011;13449;49.374;8.584;2023-05-16T01:37:18;47.20;;;22.33;;
24485;SDS011;13449;49.374;8.584;2023-05-16T01:39:55;46.03;;;22.40;;
24485;SDS011;13449;49.374;8.584;2023-05-16T01:42:30;54.55;;;24.67;;
24485;SDS011;13449;49.374;8.584;2023-05-16T01:45:07;44.47;;;21.83;;
24485;SDS011;13449;49.374;8.584;2023-05-16T01:47:40;39.15;;;19.50;;
24485;SDS011;13449;49.374;8.584;2023-05-16T01:50:13;41.85;;;19.95;;
24485;SDS011;13449;49.374;8.584;2023-05-16T01:52:45;49.78;;;22.20;;
24485;SDS011;13449;49.374;8.584;2023-05-16T01:55:21;45.10;;;21.33;;
24485;SDS011;13449;49.374;8.584;2023-05-16T01:57:54;48.67;;;22.08;;
24485;SDS011;13449;49.374;8.584;2023-05-16T02:00:26;44.77;;;21.97;;
24485;SDS011;13449;49.374;8.584;2023-05-16T02:02:52;48.78;;;23.25;;
24485;SDS011;13449;49.374;8.584;2023-05-16T02:05:19;50.35;;;22.80;;
24485;SDS011;13449;49.374;8.584;2023-05-16T02:07:45;50.55;;;23.45;;
24485;SDS011;13449;49.374;8.584;2023-05-16T02:10:12;48.50;;;21.55;;
24485;SDS011;13449;49.374;8.584;2023-05-16T02:12:39;45.95;;;18.92;;
24485;SDS011;13449;49.374;8.584;2023-05-16T02:15:05;44.08;;;20.83;;
24485;SDS011;13449;49.374;8.584;2023-05-16T02:17:32;39.50;;;19.85;;
24485;SDS011;13449;49.374;8.584;2023-05-16T02:19:59;48.30;;;21.67;;
24485;SDS011;13449;49.374;8.584;2023-05-16T02:22:32;47.55;;;21.80;;
24485;SDS011;13449;49.374;8.584;2023-05-16T02:24:59;40.70;;;19.60;;
24485;SDS011;13449;49.374;8.584;2023-05-16T02:27:26;49.85;;;19.45;;
24485;SDS011;13449;49.374;8.584;2023-05-16T02:29:52;46.22;;;20.20;;
24485;SDS011;13449;49.374;8.584;2023-05-16T02:32:21;45.25;;;19.90;;
24485;SDS011;13449;49.374;8.584;2023-05-16T02:34:48;44.03;;;20.88;;
24485;SDS011;13449;49.374;8.584;2023-05-16T02:37:14;40.40;;;18.45;;
24485;SDS011;13449;49.374;8.584;2023-05-16T02:39:41;42.17;;;18.50;;
24485;SDS011;13449;49.374;8.584;2023-05-16T02:42:07;38.22;;;19.23;;
24485;SDS011;13449;49.374;8.584;2023-05-16T02:44:34;31.45;;;17.77;;
24485;SDS011;13449;49.374;8.584;2023-05-16T02:49:51;34.13;;;18.15;;
24485;SDS011;13449;49.374;8.584;2023-05-16T02:52:18;37.67;;;15.63;;
24485;SDS011;13449;49.374;8.584;2023-05-16T02:54:44;42.05;;;15.65;;
24485;SDS011;13449;49.374;8.584;2023-05-16T02:57:25;28.80;;;14.02;;
24485;SDS011;13449;49.374;8.584;2023-05-16T02:59:53;30.65;;;15.20;;
24485;SDS011;13449;49.374;8.584;2023-05-16T03:02:22;35.07;;;14.37;;
24485;SDS011;13449;49.374;8.584;2023-05-16T03:04:49;34.17;;;13.88;;
24485;SDS011;13449;49.374;8.584;2023-05-16T03:07:15;31.45;;;14.00;;
24485;SDS011;13449;49.374;8.584;2023-05-16T03:09:42;31.17;;;12.07;;
24485;SDS011;13449;49.374;8.584;2023-05-16T03:12:08;28.02;;;14.23;;
24485;SDS011;13449;49.374;8.584;2023-05-16T03:14:35;37.97;;;13.82;;
24485;SDS011;13449;49.374;8.584;2023-05-16T03:17:01;27.73;;;13.95;;
24485;SDS011;13449;49.374;8.584;2023-05-16T03:19:28;27.85;;;13.50;;
24485;SDS011;13449;49.374;8.584;2023-05-16T03:21:55;25.02;;;13.10;;
24485;SDS011;13449;49.374;8.584;2023-05-16T03:24:24;26.60;;;13.63;;
24485;SDS011;13449;49.374;8.584;2023-05-16T03:26:51;24.63;;;13.18;;
24485;SDS011;13449;49.374;8.584;2023-05-16T03:29:17;27.38;;;13.75;;
24485;SDS011;13449;49.374;8.584;2023-05-16T03:31:44;30.67;;;13.27;;
24485;SDS011;13449;49.374;8.584;2023-05-16T03:34:10;31.00;;;13.45;;
24485;SDS011;13449;49.374;8.584;2023-05-16T03:36:38;27.15;;;12.85;;
24485;SDS011;13449;49.374;8.584;2023-05-16T03:39:05;26.08;;;12.88;;
24485;SDS011;13449;49.374;8.584;2023-05-16T03:41:31;26.58;;;13.57;;
24485;SDS011;13449;49.374;8.584;2023-05-16T03:43:58;29.23;;;12.57;;
24485;SDS011;13449;49.374;8.584;2023-05-16T03:46:24;20.13;;;10.77;;
24485;SDS011;13449;49.374;8.584;2023-05-16T03:48:51;24.15;;;12.88;;
24485;SDS011;13449;49.374;8.584;2023-05-16T03:51:18;32.70;;;12.15;;
24485;SDS011;13449;49.374;8.584;2023-05-16T03:53:46;23.70;;;12.32;;
24485;SDS011;13449;49.374;8.584;2023-05-16T03:56:13;26.33;;;13.27;;
24485;SDS011;13449;49.374;8.584;2023-05-16T03:58:39;24.17;;;12.63;;
24485;SDS011;13449;49.374;8.584;2023-05-16T04:01:06;27.27;;;12.18;;
24485;SDS011;13449;49.374;8.584;2023-05-16T04:03:32;29.38;;;13.18;;
24485;SDS011;13449;49.374;8.584;2023-05-16T04:05:59;23.70;;;11.05;;
24485;SDS011;13449;49.374;8.584;2023-05-16T04:08:25;23.75;;;10.68;;
24485;SDS011;13449;49.374;8.584;2023-05-16T04:10:52;23.38;;;11.55;;
24485;SDS011;13449;49.374;8.584;2023-05-16T04:16:33;28.83;;;11.80;;
24485;SDS011;13449;49.374;8.584;2023-05-16T04:19:00;26.25;;;11.05;;
24485;SDS011;13449;49.374;8.584;2023-05-16T04:21:26;30.38;;;10.85;;
24485;SDS011;13449;49.374;8.584;2023-05-16T04:23:52;27.02;;;11.68;;
24485;SDS011;13449;49.374;8.584;2023-05-16T04:26:19;23.92;;;12.18;;
24485;SDS011;13449;49.374;8.584;2023-05-16T04:28:47;24.30;;;12.13;;
24485;SDS011;13449;49.374;8.584;2023-05-16T04:31:16;28.02;;;12.57;;
24485;SDS011;13449;49.374;8.584;2023-05-16T04:33:45;29.25;;;10.75;;
24485;SDS011;13449;49.374;8.584;2023-05-16T04:36:12;23.27;;;11.57;;
24485;SDS011;13449;49.374;8.584;2023-05-16T04:38:38;21.70;;;11.52;;
24485;SDS011;13449;49.374;8.584;2023-05-16T04:41:05;19.65;;;8.85;;
24485;SDS011;13449;49.374;8.584;2023-05-16T04:43:31;31.45;;;11.32;;
24485;SDS011;13449;49.374;8.584;2023-05-16T04:45:58;31.33;;;11.40;;
24485;SDS011;13449;49.374;8.584;2023-05-16T04:48:24;26.25;;;11.32;;
24485;SDS011;13449;49.374;8.584;2023-05-16T04:50:51;23.60;;;11.68;;
24485;SDS011;13449;49.374;8.584;2023-05-16T04:53:17;27.63;;;11.05;;
24485;SDS011;13449;49.374;8.584;2023-05-16T04:55:44;33.97;;;12.25;;
24485;SDS011;13449;49.374;8.584;2023-05-16T04:58:12;21.27;;;10.93;;
24485;SDS011;13449;49.374;8.584;2023-05-16T05:00:40;30.35;;;11.82;;
24485;SDS011;13449;49.374;8.584;2023-05-16T05:03:06;28.77;;;11.93;;
24485;SDS011;13449;49.374;8.584;2023-05-16T05:05:33;26.27;;;11.20;;
24485;SDS011;13449;49.374;8.584;2023-05-16T05:08:00;24.83;;;10.95;;
24485;SDS011;13449;49.374;8.584;2023-05-16T05:10:26;26.10;;;12.35;;
24485;SDS011;13449;49.374;8.584;2023-05-16T05:12:53;29.02;;;10.77;;
24485;SDS011;13449;49.374;8.584;2023-05-16T05:15:20;24.70;;;11.30;;
24485;SDS011;13449;49.374;8.584;2023-05-16T05:17:46;24.63;;;10.50;;
24485;SDS011;13449;49.374;8.584;2023-05-16T05:20:15;21.83;;;10.63;;
24485;SDS011;13449;49.374;8.584;2023-05-16T05:22:44;25.30;;;11.00;;
24485;SDS011;13449;49.374;8.584;2023-05-16T05:25:10;25.52;;;10.85;;
24485;SDS011;13449;49.374;8.584;2023-05-16T05:27:41;23.07;;;10.00;;
24485;SDS011;13449;49.374;8.584;2023-05-16T05:30:13;21.75;;;9.68;;
24485;SDS011;13449;49.374;8.584;2023-05-16T05:32:39;34.00;;;11.25;;
24485;SDS011;13449;49.374;8.584;2023-05-16T05:35:06;30.38;;;10.02;;
24485;SDS011;13449;49.374;8.584;2023-05-16T05:37:33;19.65;;;9.73;;
24485;SDS011;13449;49.374;8.584;2023-05-16T05:39:59;21.45;;;8.18;;
24485;SDS011;13449;49.374;8.584;2023-05-16T05:42:26;19.33;;;8.57;;
24485;SDS011;13449;49.374;8.584;2023-05-16T05:44:52;21.90;;;8.23;;
24485;SDS011;13449;49.374;8.584;2023-05-16T05:47:18;14.85;;;7.30;;
24485;SDS011;13449;49.374;8.584;2023-05-16T05:49:45;17.13;;;8.20;;
24485;SDS011;13449;49.374;8.584;2023-05-16T05:52:11;14.73;;;7.70;;
24485;SDS011;13449;49.374;8.584;2023-05-16T05:54:38;14.77;;;6.78;;
24485;SDS011;13449;49.374;8.584;2023-05-16T05:57:04;19.65;;;7.13;;
24485;SDS011;13449;49.374;8.584;2023-05-16T05:59:31;14.25;;;6.13;;
24485;SDS011;13449;49.374;8.584;2023-05-16T06:01:57;18.45;;;7.28;;
24485;SDS011;13449;49.374;8.584;2023-05-16T06:04:24;14.95;;;6.35;;
24485;SDS011;13449;49.374;8.584;2023-05-16T06:06:50;11.63;;;5.43;;
24485;SDS011;13449;49.374;8.584;2023-05-16T06:09:17;8.82;;;5.90;;
24485;SDS011;13449;49.374;8.584;2023-05-16T06:11:46;9.73;;;4.40;;
24485;SDS011;13449;49.374;8.584;2023-05-16T06:14:13;8.52;;;4.80;;
24485;SDS011;13449;49.374;8.584;2023-05-16T06:16:40;7.15;;;4.85;;
24485;SDS011;13449;49.374;8.584;2023-05-16T06:19:10;9.30;;;4.90;;
24485;SDS011;13449;49.374;8.584;2023-05-16T06:21:41;7.68;;;4.20;;
24485;SDS011;13449;49.374;8.584;2023-05-16T06:24:08;7.25;;;3.92;;
24485;SDS011;13449;49.374;8.584;2023-05-16T06:26:35;6.28;;;3.97;;
24485;SDS011;13449;49.374;8.584;2023-05-16T06:29:04;8.18;;;3.70;;
24485;SDS011;13449;49.374;8.584;2023-05-16T06:31:33;6.40;;;3.63;;
24485;SDS011;13449;49.374;8.584;2023-05-16T06:33:59;7.18;;;2.75;;
24485;SDS011;13449;49.374;8.584;2023-05-16T06:36:26;8.10;;;3.20;;
24485;SDS011;13449;49.374;8.584;2023-05-16T06:38:52;4.18;;;2.40;;
24485;SDS011;13449;49.374;8.584;2023-05-16T06:41:19;6.88;;;2.17;;
24485;SDS011;13449;49.374;8.584;2023-05-16T06:43:47;4.38;;;2.15;;
24485;SDS011;13449;49.374;8.584;2023-05-16T06:46:14;2.80;;;1.80;;
24485;SDS011;13449;49.374;8.584;2023-05-16T06:48:41;2.83;;;1.63;;
24485;SDS011;13449;49.374;8.584;2023-05-16T06:51:07;2.58;;;1.58;;
24485;SDS011;13449;49.374;8.584;2023-05-16T06:53:35;1.88;;;1.58;;
24485;SDS011;13449;49.374;8.584;2023-05-16T06:56:01;2.83;;;1.60;;
24485;SDS011;13449;49.374;8.584;2023-05-16T06:58:31;2.30;;;1.80;;
24485;SDS011;13449;49.374;8.584;2023-05-16T07:00:57;1.83;;;1.45;;
24485;SDS011;13449;49.374;8.584;2023-05-16T07:03:24;1.05;;;1.00;;
24485;SDS011;13449;49.374;8.584;2023-05-16T07:05:52;2.58;;;1.83;;
24485;SDS011;13449;49.374;8.584;2023-05-16T07:08:23;7.72;;;4.43;;
24485;SDS011;13449;49.374;8.584;2023-05-16T07:10:50;3.75;;;3.05;;
24485;SDS011;13449;49.374;8.584;2023-05-16T07:13:19;3.47;;;1.67;;
24485;SDS011;13449;49.374;8.584;2023-05-16T07:15:47;4.45;;;1.30;;
24485;SDS011;13449;49.374;8.584;2023-05-16T07:18:16;4.70;;;1.40;;
24485;SDS011;13449;49.374;8.584;2023-05-16T07:20:42;1.63;;;1.13;;
24485;SDS011;13449;49.374;8.584;2023-05-16T07:23:09;3.50;;;1.20;;
24485;SDS011;13449;49.374;8.584;2023-05-16T07:25:35;1.27;;;1.17;;
24485;SDS011;13449;49.374;8.584;2023-05-16T07:28:02;1.88;;;1.17;;
24485;SDS011;13449;49.374;8.584;2023-05-16T07:30:28;1.23;;;1.05;;
24485;SDS011;13449;49.374;8.584;2023-05-16T07:32:55;1.85;;;1.38;;
24485;SDS011;13449;49.374;8.584;2023-05-16T07:35:22;1.17;;;1.08;;
24485;SDS011;13449;49.374;8.584;2023-05-16T07:37:48;0.85;;;0.82;;
24485;SDS011;13449;49.374;8.584;2023-05-16T07:40:17;3.42;;;1.13;;
24485;SDS011;13449;49.374;8.584;2023-05-16T07:42:45;3.58;;;0.90;;
24485;SDS011;13449;49.374;8.584;2023-05-16T07:45:12;2.22;;;1.55;;
24485;SDS011;13449;49.374;8.584;2023-05-16T07:47:38;9.75;;;4.72;;
24485;SDS011;13449;49.374;8.584;2023-05-16T07:50:08;1.65;;;0.90;;
24485;SDS011;13449;49.374;8.584;2023-05-16T07:52:35;2.42;;;1.00;;
24485;SDS011;13449;49.374;8.584;2023-05-16T07:55:04;3.40;;;1.83;;
24485;SDS011;13449;49.374;8.584;2023-05-16T07:57:34;0.93;;;0.80;;
24485;SDS011;13449;49.374;8.584;2023-05-16T08:00:01;3.50;;;0.88;;
24485;SDS011;13449;49.374;8.584;2023-05-16T08:02:29;1.45;;;1.33;;
24485;SDS011;13449;49.374;8.584;2023-05-16T08:04:56;8.98;;;0.90;;
24485;SDS011;13449;49.374;8.584;2023-05-16T08:07:23;1.00;;;0.82;;
24485;SDS011;13449;49.374;8.584;2023-05-16T08:09:49;2.22;;;0.70;;
24485;SDS011;13449;49.374;8.584;2023-05-16T08:12:16;7.63;;;0.93;;
24485;SDS011;13449;49.374;8.584;2023-05-16T08:14:42;0.70;;;0.70;;
24485;SDS011;13449;49.374;8.584;2023-05-16T08:17:09;2.00;;;0.90;;
24485;SDS011;13449;49.374;8.584;2023-05-16T08:19:35;4.20;;;1.90;;
24485;SDS011;13449;49.374;8.584;2023-05-16T08:22:05;0.80;;;0.80;;
24485;SDS011;13449;49.374;8.584;2023-05-16T08:24:32;0.80;;;0.68;;
24485;SDS011;13449;49.374;8.584;2023-05-16T08:26:58;2.55;;;0.68;;
24485;SDS011;13449;49.374;8.584;2023-05-16T08:29:25;1.65;;;1.05;;
24485;SDS011;13449;49.374;8.584;2023-05-16T08:31:52;3.20;;;0.60;;
24485;SDS011;13449;49.374;8.584;2023-05-16T08:34:20;1.50;;;0.60;;
24485;SDS011;13449;49.374;8.584;2023-05-16T08:36:49;2.97;;;0.82;;
24485;SDS011;13449;49.374;8.584;2023-05-16T08:39:18;3.80;;;0.50;;
24485;SDS011;13449;49.374;8.584;2023-05-16T08:41:44;0.52;;;0.47;;
24485;SDS011;13449;49.374;8.584;2023-05-16T08:44:11;0.93;;;0.65;;
24485;SDS011;13449;49.374;8.584;2023-05-16T08:46:42;1.45;;;0.50;;
24485;SDS011;13449;49.374;8.584;2023-05-16T08:49:11;0.38;;;0.35;;
24485;SDS011;13449;49.374;8.584;2023-05-16T08:51:40;0.60;;;0.40;;
24485;SDS011;13449;49.374;8.584;2023-05-16T08:54:08;1.17;;;0.73;;
24485;SDS011;13449;49.374;8.584;2023-05-16T08:56:40;0.70;;;0.52;;
24485;SDS011;13449;49.374;8.584;2023-05-16T08:59:08;1.85;;;0.60;;
24485;SDS011;13449;49.374;8.584;2023-05-16T09:01:36;3.45;;;0.98;;
24485;SDS011;13449;49.374;8.584;2023-05-16T09:04:05;0.45;;;0.43;;
24485;SDS011;13449;49.374;8.584;2023-05-16T09:06:33;0.60;;;0.60;;
24485;SDS011;13449;49.374;8.584;2023-05-16T09:09:00;1.67;;;0.70;;
24485;SDS011;13449;49.374;8.584;2023-05-16T09:11:27;0.70;;;0.70;;
24485;SDS011;13449;49.374;8.584;2023-05-16T09:13:54;0.80;;;0.70;;
24485;SDS011;13449;49.374;8.584;2023-05-16T09:16:21;2.10;;;0.73;;
24485;SDS011;13449;49.374;8.584;2023-05-16T09:19:21;3.50;;;0.60;;
24485;SDS011;13449;49.374;8.584;2023-05-16T09:21:41;0.40;;;0.40;;
24485;SDS011;13449;49.374;8.584;2023-05-16T09:24:10;0.47;;;0.47;;
24485;SDS011;13449;49.374;8.584;2023-05-16T09:26:37;0.57;;;0.50;;
24485;SDS011;13449;49.374;8.584;2023-05-16T09:29:10;0.85;;;0.68;;
24485;SDS011;13449;49.374;8.584;2023-05-16T09:31:37;1.33;;;0.50;;
24485;SDS011;13449;49.374;8.584;2023-05-16T09:34:07;1.05;;;0.73;;
24485;SDS011;13449;49.374;8.584;2023-05-16T09:36:38;0.80;;;0.60;;
24485;SDS011;13449;49.374;8.584;2023-05-16T09:39:08;3.80;;;0.50;;
24485;SDS011;13449;49.374;8.584;2023-05-16T09:41:34;2.42;;;0.40;;
24485;SDS011;13449;49.374;8.584;2023-05-16T09:44:04;0.50;;;0.30;;
24485;SDS011;13449;49.374;8.584;2023-05-16T09:46:34;5.13;;;0.50;;
24485;SDS011;13449;49.374;8.584;2023-05-16T09:49:02;3.42;;;0.40;;
24485;SDS011;13449;49.374;8.584;2023-05-16T09:51:29;8.00;;;0.22;;
24485;SDS011;13449;49.374;8.584;2023-05-16T09:53:57;0.25;;;0.25;;
24485;SDS011;13449;49.374;8.584;2023-05-16T09:56:26;0.10;;;0.10;;
24485;SDS011;13449;49.374;8.584;2023-05-16T09:58:55;1.27;;;0.43;;
24485;SDS011;13449;49.374;8.584;2023-05-16T10:01:21;2.67;;;0.55;;
24485;SDS011;13449;49.374;8.584;2023-05-16T10:03:48;0.60;;;0.30;;
24485;SDS011;13449;49.374;8.584;2023-05-16T10:06:16;0.30;;;0.30;;
24485;SDS011;13449;49.374;8.584;2023-05-16T10:08:48;1.35;;;0.47;;
24485;SDS011;13449;49.374;8.584;2023-05-16T10:11:18;1.13;;;0.43;;
24485;SDS011;13449;49.374;8.584;2023-05-16T10:13:45;1.33;;;0.60;;
24485;SDS011;13449;49.374;8.584;2023-05-16T10:16:18;0.68;;;0.45;;
24485;SDS011;13449;49.374;8.584;2023-05-16T10:18:51;6.83;;;0.57;;
24485;SDS011;13449;49.374;8.584;2023-05-16T10:21:20;5.55;;;0.20;;
24485;SDS011;13449;49.374;8.584;2023-05-16T10:23:50;4.53;;;0.30;;
24485;SDS011;13449;49.374;8.584;2023-05-16T10:26:22;1.77;;;0.30;;
24485;SDS011;13449;49.374;8.584;2023-05-16T10:28:52;0.50;;;0.30;;
24485;SDS011;13449;49.374;8.584;2023-05-16T10:31:19;2.97;;;0.40;;
24485;SDS011;13449;49.374;8.584;2023-05-16T10:33:46;0.40;;;0.40;;
24485;SDS011;13449;49.374;8.584;2023-05-16T10:36:13;0.17;;;0.17;;
24485;SDS011;13449;49.374;8.584;2023-05-16T10:38:41;0.40;;;0.30;;
24485;SDS011;13449;49.374;8.584;2023-05-16T10:41:14;5.55;;;0.60;;
24485;SDS011;13449;49.374;8.584;2023-05-16T10:43:59;1.85;;;0.40;;
24485;SDS011;13449;49.374;8.584;2023-05-16T10:46:30;1.02;;;0.30;;
24485;SDS011;13449;49.374;8.584;2023-05-16T10:48:57;0.68;;;0.40;;
24485;SDS011;13449;49.374;8.584;2023-05-16T10:51:32;2.72;;;0.30;;
24485;SDS011;13449;49.374;8.584;2023-05-16T10:54:04;0.20;;;0.20;;
24485;SDS011;13449;49.374;8.584;2023-05-16T10:56:35;0.63;;;0.40;;
24485;SDS011;13449;49.374;8.584;2023-05-16T10:59:07;0.85;;;0.40;;
24485;SDS011;13449;49.374;8.584;2023-05-16T11:01:51;0.30;;;0.30;;
24485;SDS011;13449;49.374;8.584;2023-05-16T11:04:19;0.73;;;0.40;;
24485;SDS011;13449;49.374;8.584;2023-05-16T11:06:48;1.23;;;0.50;;
24485;SDS011;13449;49.374;8.584;2023-05-16T11:09:20;3.40;;;0.77;;
24485;SDS011;13449;49.374;8.584;2023-05-16T11:14:19;2.40;;;0.50;;
24485;SDS011;13449;49.374;8.584;2023-05-16T11:22:20;0.50;;;0.45;;
24485;SDS011;13449;49.374;8.584;2023-05-16T11:24:56;1.30;;;0.63;;
24485;SDS011;13449;49.374;8.584;2023-05-16T11:27:27;0.68;;;0.38;;
24485;SDS011;13449;49.374;8.584;2023-05-16T11:32:35;1.75;;;0.85;;
24485;SDS011;13449;49.374;8.584;2023-05-16T11:35:04;3.60;;;0.65;;
24485;SDS011;13449;49.374;8.584;2023-05-16T11:37:33;0.85;;;0.50;;
24485;SDS011;13449;49.374;8.584;2023-05-16T11:40:05;0.47;;;0.30;;
24485;SDS011;13449;49.374;8.584;2023-05-16T11:42:35;4.35;;;0.52;;
24485;SDS011;13449;49.374;8.584;2023-05-16T11:45:08;1.23;;;0.50;;
24485;SDS011;13449;49.374;8.584;2023-05-16T11:47:38;3.63;;;0.68;;
24485;SDS011;13449;49.374;8.584;2023-05-16T11:50:06;0.47;;;0.40;;
24485;SDS011;13449;49.374;8.584;2023-05-16T11:52:36;3.23;;;0.63;;
24485;SDS011;13449;49.374;8.584;2023-05-16T11:55:04;6.30;;;0.38;;
24485;SDS011;13449;49.374;8.584;2023-05-16T11:57:32;0.88;;;0.60;;
24485;SDS011;13449;49.374;8.584;2023-05-16T12:00:03;0.95;;;0.63;;
24485;SDS011;13449;49.374;8.584;2023-05-16T12:02:33;5.55;;;0.90;;
24485;SDS011;13449;49.374;8.584;2023-05-16T12:05:04;5.22;;;0.82;;
24485;SDS011;13449;49.374;8.584;2023-05-16T12:07:41;2.63;;;0.60;;
24485;SDS011;13449;49.374;8.584;2023-05-16T12:10:10;2.95;;;0.73;;
24485;SDS011;13449;49.374;8.584;2023-05-16T12:12:41;3.03;;;0.60;;
24485;SDS011;13449;49.374;8.584;2023-05-16T12:15:11;4.68;;;1.02;;
24485;SDS011;13449;49.374;8.584;2023-05-16T12:17:38;3.40;;;0.70;;
24485;SDS011;13449;49.374;8.584;2023-05-16T12:20:07;5.03;;;0.55;;
24485;SDS011;13449;49.374;8.584;2023-05-16T12:25:35;3.78;;;0.70;;
24485;SDS011;13449;49.374;8.584;2023-05-16T12:28:03;1.58;;;0.82;;
24485;SDS011;13449;49.374;8.584;2023-05-16T12:30:30;2.10;;;0.77;;
24485;SDS011;13449;49.374;8.584;2023-05-16T12:32:59;8.63;;;0.90;;
24485;SDS011;13449;49.374;8.584;2023-05-16T12:35:33;2.58;;;0.90;;
24485;SDS011;13449;49.374;8.584;2023-05-16T12:38:03;2.78;;;1.08;;
24485;SDS011;13449;49.374;8.584;2023-05-16T12:40:30;1.23;;;0.70;;
24485;SDS011;13449;49.374;8.584;2023-05-16T12:42:57;3.03;;;0.90;;
24485;SDS011;13449;49.374;8.584;2023-05-16T12:45:27;2.13;;;1.00;;
24485;SDS011;13449;49.374;8.584;2023-05-16T12:48:04;5.07;;;1.10;;
24485;SDS011;13449;49.374;8.584;2023-05-16T12:50:32;6.82;;;1.27;;
24485;SDS011;13449;49.374;8.584;2023-05-16T12:52:59;4.95;;;0.95;;
24485;SDS011;13449;49.374;8.584;2023-05-16T12:55:26;8.43;;;1.23;;
24485;SDS011;13449;49.374;8.584;2023-05-16T12:57:53;4.03;;;1.05;;
24485;SDS011;13449;49.374;8.584;2023-05-16T13:00:20;8.25;;;0.90;;
24485;SDS011;13449;49.374;8.584;2023-05-16T13:02:48;8.35;;;1.17;;
24485;SDS011;13449;49.374;8.584;2023-05-16T13:05:15;7.10;;;1.30;;
24485;SDS011;13449;49.374;8.584;2023-05-16T13:07:44;4.28;;;0.85;;
24485;SDS011;13449;49.374;8.584;2023-05-16T13:10:10;8.88;;;1.85;;
24485;SDS011;13449;49.374;8.584;2023-05-16T13:12:40;10.07;;;1.83;;
24485;SDS011;13449;49.374;8.584;2023-05-16T13:15:07;8.50;;;1.63;;
24485;SDS011;13449;49.374;8.584;2023-05-16T13:17:38;2.30;;;1.33;;
24485;SDS011;13449;49.374;8.584;2023-05-16T13:20:06;4.38;;;1.38;;
24485;SDS011;13449;49.374;8.584;2023-05-16T13:22:35;8.23;;;1.08;;
24485;SDS011;13449;49.374;8.584;2023-05-16T13:25:02;3.35;;;0.80;;
24485;SDS011;13449;49.374;8.584;2023-05-16T13:27:29;7.75;;;1.02;;
24485;SDS011;13449;49.374;8.584;2023-05-16T13:29:59;7.20;;;1.25;;
24485;SDS011;13449;49.374;8.584;2023-05-16T13:32:26;3.83;;;1.23;;
24485;SDS011;13449;49.374;8.584;2023-05-16T13:34:53;3.65;;;1.23;;
24485;SDS011;13449;49.374;8.584;2023-05-16T13:37:20;6.18;;;1.13;;
24485;SDS011;13449;49.374;8.584;2023-05-16T13:39:49;8.10;;;0.98;;
24485;SDS011;13449;49.374;8.584;2023-05-16T13:42:16;5.35;;;1.08;;
24485;SDS011;13449;49.374;8.584;2023-05-16T13:44:42;2.80;;;0.70;;
24485;SDS011;13449;49.374;8.584;2023-05-16T13:47:10;8.23;;;1.05;;
24485;SDS011;13449;49.374;8.584;2023-05-16T13:49:36;3.88;;;1.10;;
24485;SDS011;13449;49.374;8.584;2023-05-16T13:52:04;4.20;;;0.95;;
24485;SDS011;13449;49.374;8.584;2023-05-16T13:54:31;1.45;;;0.63;;
24485;SDS011;13449;49.374;8.584;2023-05-16T13:57:01;5.75;;;0.90;;
24485;SDS011;13449;49.374;8.584;2023-05-16T13:59:30;5.85;;;1.27;;
24485;SDS011;13449;49.374;8.584;2023-05-16T14:02:02;3.35;;;1.40;;
24485;SDS011;13449;49.374;8.584;2023-05-16T14:04:28;9.77;;;0.98;;
24485;SDS011;13449;49.374;8.584;2023-05-16T14:06:55;1.48;;;0.70;;
24485;SDS011;13449;49.374;8.584;2023-05-16T14:09:21;5.75;;;0.88;;
24485;SDS011;13449;49.374;8.584;2023-05-16T14:11:48;11.32;;;0.93;;
24485;SDS011;13449;49.374;8.584;2023-05-16T14:14:14;3.33;;;0.63;;
24485;SDS011;13449;49.374;8.584;2023-05-16T14:16:41;2.92;;;0.70;;
24485;SDS011;13449;49.374;8.584;2023-05-16T14:19:11;4.07;;;0.70;;
24485;SDS011;13449;49.374;8.584;2023-05-16T14:21:41;5.75;;;0.90;;
24485;SDS011;13449;49.374;8.584;2023-05-16T14:24:07;10.18;;;0.95;;
24485;SDS011;13449;49.374;8.584;2023-05-16T14:26:34;5.70;;;0.70;;
24485;SDS011;13449;49.374;8.584;2023-05-16T14:29:00;1.95;;;0.85;;
24485;SDS011;13449;49.374;8.584;2023-05-16T14:31:27;1.65;;;0.95;;
24485;SDS011;13449;49.374;8.584;2023-05-16T14:33:54;3.33;;;1.08;;
24485;SDS011;13449;49.374;8.584;2023-05-16T14:36:23;10.07;;;1.48;;
24485;SDS011;13449;49.374;8.584;2023-05-16T14:38:51;4.20;;;1.13;;
24485;SDS011;13449;49.374;8.584;2023-05-16T14:41:18;4.82;;;1.08;;
24485;SDS011;13449;49.374;8.584;2023-05-16T14:43:44;3.70;;;0.90;;
24485;SDS011;13449;49.374;8.584;2023-05-16T14:46:11;8.75;;;0.95;;
24485;SDS011;13449;49.374;8.584;2023-05-16T14:48:37;4.65;;;1.38;;
24485;SDS011;13449;49.374;8.584;2023-05-16T14:51:04;3.35;;;1.13;;
24485;SDS011;13449;49.374;8.584;2023-05-16T14:53:32;5.57;;;1.13;;
24485;SDS011;13449;49.374;8.584;2023-05-16T14:55:58;4.55;;;0.73;;
24485;SDS011;13449;49.374;8.584;2023-05-16T14:58:27;12.18;;;1.00;;
24485;SDS011;13449;49.374;8.584;2023-05-16T15:00:54;4.43;;;1.02;;
24485;SDS011;13449;49.374;8.584;2023-05-16T15:03:21;2.33;;;0.90;;
24485;SDS011;13449;49.374;8.584;2023-05-16T15:05:47;5.20;;;1.60;;
24485;SDS011;13449;49.374;8.584;2023-05-16T15:08:14;6.13;;;1.10;;